createdAt,value
2023-02-27T00:01:10.656Z,1.50
2023-02-27T00:03:37.513Z,1.23
2023-02-27T00:06:05.043Z,0.75
2023-02-27T00:08:32.955Z,0.85
2023-02-27T00:11:00.026Z,1.27
2023-02-27T00:13:26.810Z,0.98
2023-02-27T00:15:56.232Z,1.27
2023-02-27T00:18:23.560Z,1.10
2023-02-27T00:20:50.637Z,2.78
2023-02-27T00:23:17.639Z,1.48
2023-02-27T00:25:44.624Z,1.02
2023-02-27T00:28:11.991Z,1.25
2023-02-27T00:30:39.132Z,1.02
2023-02-27T00:33:06.165Z,1.38
2023-02-27T00:35:33.025Z,1.00
2023-02-27T00:38:00.139Z,1.30
2023-02-27T00:40:26.993Z,1.33
2023-02-27T00:42:54.048Z,1.00
2023-02-27T00:45:21.056Z,1.10
2023-02-27T00:47:48.226Z,0.95
2023-02-27T00:50:15.728Z,1.00
2023-02-27T00:52:42.964Z,1.38
2023-02-27T00:55:10.414Z,1.40
2023-02-27T00:57:38.694Z,1.10
2023-02-27T01:00:08.050Z,0.75
2023-02-27T01:02:35.127Z,1.20
2023-02-27T01:05:02.507Z,1.25
2023-02-27T01:07:29.416Z,1.67
2023-02-27T01:09:56.460Z,1.48
2023-02-27T01:12:23.463Z,1.00
2023-02-27T01:14:50.452Z,1.50
2023-02-27T01:17:17.614Z,1.20
2023-02-27T01:19:44.584Z,1.83
2023-02-27T01:22:11.655Z,1.02
2023-02-27T01:24:38.704Z,1.20
2023-02-27T01:27:06.566Z,1.05
2023-02-27T01:29:33.409Z,1.40
2023-02-27T01:32:00.310Z,1.67
2023-02-27T01:34:27.363Z,0.98
2023-02-27T01:36:54.326Z,1.30
2023-02-27T01:39:21.440Z,1.50
2023-02-27T01:41:49.317Z,1.13
2023-02-27T01:44:16.322Z,1.20
2023-02-27T01:46:43.453Z,1.20
2023-02-27T01:49:29.414Z,1.30
2023-02-27T01:52:06.112Z,1.15
2023-02-27T01:54:38.904Z,1.50
2023-02-27T01:57:06.814Z,1.48
2023-02-27T01:59:35.699Z,1.30
2023-02-27T02:02:08.086Z,0.85
2023-02-27T02:04:39.440Z,0.93
2023-02-27T02:07:18.669Z,1.58
2023-02-27T02:09:54.946Z,1.27
2023-02-27T02:12:26.779Z,1.25
2023-02-27T02:14:53.890Z,1.08
2023-02-27T02:17:43.995Z,1.33
2023-02-27T02:20:22.742Z,1.45
2023-02-27T02:23:07.760Z,1.05
2023-02-27T02:25:57.912Z,1.23
2023-02-27T02:28:24.722Z,0.80
2023-02-27T02:30:51.918Z,1.25
2023-02-27T02:33:45.951Z,1.60
2023-02-27T02:36:46.600Z,1.15
2023-02-27T02:39:35.339Z,0.90
2023-02-27T02:42:20.284Z,1.10
2023-02-27T02:45:06.344Z,1.13
2023-02-27T02:47:51.331Z,0.93
2023-02-27T02:50:24.986Z,1.67
2023-02-27T02:52:59.453Z,1.17
2023-02-27T02:55:40.272Z,0.63
2023-02-27T02:58:24.115Z,1.10
2023-02-27T03:01:05.408Z,0.98
2023-02-27T03:03:36.901Z,1.20
2023-02-27T03:06:12.589Z,1.00
2023-02-27T03:09:11.272Z,1.70
2023-02-27T03:11:42.182Z,1.27
2023-02-27T03:14:21.651Z,1.38
2023-02-27T03:16:53.364Z,1.75
2023-02-27T03:19:20.372Z,1.55
2023-02-27T03:21:56.569Z,1.00
2023-02-27T03:24:44.468Z,1.45
2023-02-27T03:27:12.494Z,1.33
2023-02-27T03:29:46.955Z,1.48
2023-02-27T03:32:43.695Z,0.82
2023-02-27T03:35:12.490Z,1.30
2023-02-27T03:38:06.361Z,1.20
2023-02-27T03:40:43.566Z,2.17
2023-02-27T03:43:38.682Z,1.10
2023-02-27T03:46:26.549Z,1.02
2023-02-27T03:48:53.848Z,0.90
2023-02-27T03:51:25.359Z,1.42
2023-02-27T03:54:31.018Z,1.30
2023-02-27T03:57:01.920Z,0.93
2023-02-27T03:59:30.727Z,1.30
2023-02-27T04:02:00.606Z,1.67
2023-02-27T04:07:18.283Z,1.30
2023-02-27T04:13:17.245Z,1.27
2023-02-27T04:15:47.076Z,0.90
2023-02-27T04:21:37.656Z,1.35
2023-02-27T04:24:32.524Z,1.30
2023-02-27T04:27:05.651Z,1.42
2023-02-27T04:29:42.392Z,1.67
2023-02-27T04:32:12.205Z,1.50
2023-02-27T04:37:22.496Z,1.65
2023-02-27T04:39:55.362Z,1.38
2023-02-27T04:42:28.032Z,1.20
2023-02-27T04:44:57.980Z,1.38
2023-02-27T04:47:26.536Z,1.42
2023-02-27T04:50:01.776Z,1.40
2023-02-27T04:52:38.278Z,1.73
2023-02-27T04:55:18.093Z,2.03
2023-02-27T05:00:23.298Z,1.98
2023-02-27T05:03:13.244Z,1.88
2023-02-27T05:05:43.695Z,1.85
2023-02-27T05:08:18.501Z,1.42
2023-02-27T05:10:58.649Z,2.00
2023-02-27T05:13:49.050Z,1.95
2023-02-27T05:16:41.375Z,1.35
2023-02-27T05:19:09.436Z,1.67
2023-02-27T05:21:39.510Z,3.50
2023-02-27T05:24:25.070Z,2.00
2023-02-27T05:27:01.305Z,1.52
2023-02-27T05:29:41.596Z,2.30
2023-02-27T05:32:39.788Z,1.70
2023-02-27T05:35:30.643Z,1.75
2023-02-27T05:38:20.669Z,1.75
2023-02-27T05:40:52.353Z,1.90
2023-02-27T05:43:25.066Z,2.13
2023-02-27T05:45:57.670Z,2.30
2023-02-27T05:48:32.305Z,2.78
2023-02-27T05:50:59.934Z,2.72
2023-02-27T05:53:32.004Z,2.50
2023-02-27T05:56:01.403Z,2.05
2023-02-27T05:58:45.996Z,2.03
2023-02-27T06:01:13.257Z,2.03
2023-02-27T06:03:41.606Z,2.35
2023-02-27T06:06:14.249Z,1.90
2023-02-27T06:08:41.175Z,3.38
2023-02-27T06:11:08.806Z,3.40
2023-02-27T06:13:35.696Z,2.55
2023-02-27T06:16:02.784Z,3.40
2023-02-27T06:18:29.827Z,2.88
2023-02-27T06:20:57.478Z,2.42
2023-02-27T06:23:24.585Z,2.80
2023-02-27T06:25:51.667Z,2.72
2023-02-27T06:28:18.938Z,2.10
2023-02-27T06:30:46.518Z,4.32
2023-02-27T06:33:13.750Z,2.83
2023-02-27T06:35:40.747Z,2.90
2023-02-27T06:38:07.721Z,2.90
2023-02-27T06:40:34.797Z,2.92
2023-02-27T06:43:01.821Z,2.78
2023-02-27T06:45:28.996Z,3.08
2023-02-27T06:47:55.963Z,2.80
2023-02-27T06:50:22.995Z,2.80
2023-02-27T06:52:50.145Z,5.10
2023-02-27T06:55:20.292Z,3.10
2023-02-27T06:57:48.429Z,2.90
2023-02-27T07:02:42.310Z,3.10
2023-02-27T07:05:12.001Z,2.22
2023-02-27T07:07:39.496Z,3.00
2023-02-27T07:10:11.808Z,3.20
2023-02-27T07:12:40.623Z,2.90
2023-02-27T07:15:08.271Z,2.22
2023-02-27T07:17:35.193Z,2.10
2023-02-27T07:20:02.242Z,2.97
2023-02-27T07:22:29.322Z,3.35
2023-02-27T07:24:56.108Z,2.75
2023-02-27T07:27:23.028Z,4.45
2023-02-27T07:29:50.047Z,5.68
2023-02-27T07:32:17.147Z,5.25
2023-02-27T07:34:44.084Z,2.83
2023-02-27T07:37:11.560Z,2.83
2023-02-27T07:39:38.600Z,3.00
2023-02-27T07:42:05.869Z,3.17
2023-02-27T07:44:33.034Z,3.70
2023-02-27T07:47:00.238Z,3.05
2023-02-27T07:49:27.299Z,3.88
2023-02-27T07:51:54.207Z,4.22
2023-02-27T07:54:21.381Z,2.83
2023-02-27T07:56:48.305Z,4.28
2023-02-27T07:59:15.370Z,4.40
2023-02-27T08:01:42.427Z,4.38
2023-02-27T08:04:09.695Z,3.47
2023-02-27T08:06:36.585Z,3.50
2023-02-27T08:09:03.980Z,3.83
2023-02-27T08:11:31.037Z,3.00
2023-02-27T08:14:00.960Z,3.38
2023-02-27T08:16:28.926Z,3.75
2023-02-27T08:18:56.076Z,3.42
2023-02-27T08:21:23.165Z,3.60
2023-02-27T08:23:49.927Z,4.22
2023-02-27T08:26:17.031Z,4.75
2023-02-27T08:28:44.621Z,3.83
2023-02-27T08:31:11.479Z,3.47
2023-02-27T08:33:38.606Z,4.38
2023-02-27T08:36:06.438Z,4.40
2023-02-27T08:38:33.463Z,3.83
2023-02-27T08:41:00.385Z,4.47
2023-02-27T08:43:27.170Z,3.40
2023-02-27T08:45:54.437Z,3.83
2023-02-27T08:48:21.267Z,4.32
2023-02-27T08:50:48.387Z,4.50
2023-02-27T08:53:15.417Z,3.88
2023-02-27T08:55:43.114Z,2.88
2023-02-27T08:58:10.722Z,8.27
2023-02-27T09:00:37.487Z,3.47
2023-02-27T09:03:04.590Z,3.72
2023-02-27T09:05:35.167Z,4.15
2023-02-27T09:08:02.708Z,3.50
2023-02-27T09:10:30.169Z,3.45
2023-02-27T09:12:57.063Z,3.42
2023-02-27T09:15:24.706Z,3.28
2023-02-27T09:17:51.935Z,3.50
2023-02-27T09:20:19.127Z,8.43
2023-02-27T09:22:46.210Z,4.32
2023-02-27T09:25:12.957Z,2.90
2023-02-27T09:27:39.771Z,3.30
2023-02-27T09:30:07.327Z,4.10
2023-02-27T09:32:34.400Z,2.70
2023-02-27T09:35:01.378Z,2.90
2023-02-27T09:37:28.436Z,2.97
2023-02-27T09:39:55.399Z,3.22
2023-02-27T09:42:26.162Z,2.63
2023-02-27T09:44:57.061Z,3.10
2023-02-27T09:47:29.648Z,3.13
2023-02-27T09:50:27.266Z,3.40
2023-02-27T09:52:54.351Z,3.28
2023-02-27T09:55:22.337Z,2.75
2023-02-27T09:58:01.500Z,4.82
2023-02-27T10:00:49.517Z,2.45
2023-02-27T10:03:21.486Z,3.40
2023-02-27T10:06:14.694Z,2.58
2023-02-27T10:09:08.289Z,2.10
2023-02-27T10:12:27.902Z,2.10
2023-02-27T10:15:27.552Z,2.47
2023-02-27T10:18:30.386Z,2.70
2023-02-27T10:21:03.246Z,2.13
2023-02-27T10:24:11.460Z,2.97
2023-02-27T10:26:41.819Z,2.60
2023-02-27T10:29:41.735Z,2.47
2023-02-27T10:32:25.937Z,2.22
2023-02-27T10:35:37.461Z,1.67
2023-02-27T10:38:35.287Z,1.75
2023-02-27T10:41:03.649Z,1.48
2023-02-27T10:43:30.606Z,1.55
2023-02-27T10:46:11.448Z,1.85
2023-02-27T10:48:38.541Z,1.70
2023-02-27T10:51:29.011Z,2.08
2023-02-27T10:54:20.605Z,3.10
2023-02-27T10:56:56.787Z,1.70
2023-02-27T10:59:27.205Z,1.70
2023-02-27T11:02:00.572Z,1.50
2023-02-27T11:04:39.812Z,1.77
2023-02-27T11:07:10.077Z,1.40
2023-02-27T11:09:37.686Z,3.17
2023-02-27T11:12:26.504Z,1.85
2023-02-27T11:15:01.506Z,1.15
2023-02-27T11:17:34.114Z,2.03
2023-02-27T11:20:06.188Z,2.20
2023-02-27T11:22:33.842Z,1.65
2023-02-27T11:25:22.600Z,2.60
2023-02-27T11:27:52.075Z,1.80
2023-02-27T11:30:28.792Z,1.92
2023-02-27T11:32:58.620Z,1.40
2023-02-27T11:38:16.662Z,1.75
2023-02-27T11:40:52.149Z,1.25
2023-02-27T11:43:36.769Z,1.25
2023-02-27T11:46:35.941Z,7.72
2023-02-27T11:49:23.709Z,1.65
2023-02-27T11:51:53.886Z,1.92
2023-02-27T11:54:42.277Z,1.58
2023-02-27T11:57:40.308Z,1.60
2023-02-27T12:00:33.085Z,2.90
2023-02-27T12:03:22.072Z,1.20
2023-02-27T12:05:56.143Z,1.50
2023-02-27T12:08:31.980Z,1.35
2023-02-27T12:11:14.762Z,1.45
2023-02-27T12:13:47.326Z,1.25
2023-02-27T12:16:42.273Z,1.27
2023-02-27T12:19:34.650Z,1.25
2023-02-27T12:22:25.246Z,1.92
2023-02-27T12:25:12.667Z,1.63
2023-02-27T12:28:00.152Z,1.52
2023-02-27T12:30:31.774Z,1.27
2023-02-27T12:33:09.685Z,1.50
2023-02-27T12:35:36.655Z,8.13
2023-02-27T12:38:05.634Z,1.55
2023-02-27T12:40:41.171Z,1.65
2023-02-27T12:43:43.652Z,1.38
2023-02-27T12:46:13.704Z,1.73
2023-02-27T12:49:12.626Z,2.33
2023-02-27T12:52:09.676Z,1.85
2023-02-27T12:54:56.299Z,1.60
2023-02-27T12:57:29.539Z,1.30
2023-02-27T13:00:10.383Z,1.50
2023-02-27T13:03:12.066Z,2.20
2023-02-27T13:05:53.429Z,1.50
2023-02-27T13:09:01.826Z,1.80
2023-02-27T13:11:40.816Z,1.63
2023-02-27T13:14:25.268Z,1.80
2023-02-27T13:17:02.173Z,1.50
2023-02-27T13:20:04.830Z,2.60
2023-02-27T13:22:58.593Z,1.55
2023-02-27T13:25:26.706Z,1.50
2023-02-27T13:27:58.271Z,1.42
2023-02-27T13:30:32.352Z,2.17
2023-02-27T13:33:30.313Z,1.25
2023-02-27T13:36:10.705Z,1.42
2023-02-27T13:38:53.419Z,1.88
2023-02-27T13:41:36.970Z,1.40
2023-02-27T13:44:22.613Z,1.23
2023-02-27T13:46:49.765Z,1.83
2023-02-27T13:49:28.893Z,1.60
2023-02-27T13:52:00.412Z,1.63
2023-02-27T13:54:33.384Z,3.13
2023-02-27T13:57:22.797Z,1.70
2023-02-27T14:00:19.045Z,1.08
2023-02-27T14:03:07.561Z,1.25
2023-02-27T14:05:44.760Z,1.00
2023-02-27T14:08:29.307Z,1.42
2023-02-27T14:11:02.679Z,1.30
2023-02-27T14:13:52.237Z,1.80
2023-02-27T14:16:40.908Z,1.27
2023-02-27T14:19:19.589Z,1.20
2023-02-27T14:22:12.861Z,1.50
2023-02-27T14:25:01.745Z,1.20
2023-02-27T14:30:04.163Z,1.17
2023-02-27T14:32:35.481Z,1.27
2023-02-27T14:35:05.036Z,1.55
2023-02-27T14:37:32.603Z,1.25
2023-02-27T14:40:03.214Z,0.90
2023-02-27T14:43:05.615Z,1.20
2023-02-27T14:45:32.866Z,1.13
2023-02-27T14:47:59.777Z,0.70
2023-02-27T14:50:34.248Z,1.13
2023-02-27T14:53:02.026Z,1.30
2023-02-27T14:55:32.669Z,1.00
2023-02-27T14:58:16.431Z,1.10
2023-02-27T15:00:55.472Z,1.33
2023-02-27T15:03:41.988Z,1.97
2023-02-27T15:06:35.811Z,1.60
2023-02-27T15:09:03.851Z,1.10
2023-02-27T15:11:31.061Z,1.25
2023-02-27T15:14:04.484Z,1.42
2023-02-27T15:16:39.786Z,1.50
2023-02-27T15:19:18.926Z,1.92
2023-02-27T15:21:52.380Z,1.20
2023-02-27T15:24:25.900Z,1.67
2023-02-27T15:27:02.411Z,1.40
2023-02-27T15:29:35.562Z,1.00
2023-02-27T15:32:03.620Z,0.88
2023-02-27T15:34:31.344Z,0.90
2023-02-27T15:36:59.838Z,0.90
2023-02-27T15:39:31.471Z,1.15
2023-02-27T15:42:04.165Z,1.60
2023-02-27T15:44:40.269Z,0.98
2023-02-27T15:47:10.404Z,1.00
2023-02-27T15:49:38.173Z,1.33
2023-02-27T15:52:15.215Z,3.17
2023-02-27T15:54:59.105Z,1.30
2023-02-27T15:57:26.453Z,0.90
2023-02-27T15:59:55.534Z,1.30
2023-02-27T16:02:43.395Z,2.15
2023-02-27T16:05:22.264Z,1.10
2023-02-27T16:07:50.237Z,1.10
2023-02-27T16:10:40.668Z,1.13
2023-02-27T16:13:25.857Z,1.77
2023-02-27T16:16:05.761Z,2.20
2023-02-27T16:21:26.709Z,1.40
2023-02-27T16:24:21.356Z,0.90
2023-02-27T16:26:52.769Z,1.45
2023-02-27T16:29:34.950Z,1.00
2023-02-27T16:32:03.820Z,1.20
2023-02-27T16:34:48.602Z,1.67
2023-02-27T16:37:36.509Z,1.05
2023-02-27T16:40:18.095Z,1.40
2023-02-27T16:42:46.344Z,0.90
2023-02-27T16:45:26.848Z,1.40
2023-02-27T16:47:57.183Z,2.10
2023-02-27T16:50:33.663Z,1.60
2023-02-27T16:53:07.958Z,1.58
2023-02-27T16:55:40.501Z,1.17
2023-02-27T16:58:10.318Z,1.65
2023-02-27T17:00:37.405Z,1.40
2023-02-27T17:03:04.862Z,3.30
2023-02-27T17:05:32.469Z,2.08
2023-02-27T17:08:01.292Z,2.08
2023-02-27T17:10:42.674Z,1.65
2023-02-27T17:13:11.036Z,2.03
2023-02-27T17:15:37.999Z,2.15
2023-02-27T17:18:09.341Z,1.50
2023-02-27T17:20:36.848Z,1.65
2023-02-27T17:23:05.914Z,1.90
2023-02-27T17:25:34.082Z,1.57
2023-02-27T17:28:02.195Z,2.10
2023-02-27T17:30:29.377Z,2.10
2023-02-27T17:32:58.707Z,1.20
2023-02-27T17:35:30.487Z,1.80
2023-02-27T17:38:03.164Z,1.67
2023-02-27T17:40:30.959Z,1.80
2023-02-27T17:43:01.372Z,1.63
2023-02-27T17:45:32.623Z,2.17
2023-02-27T17:47:59.996Z,2.60
2023-02-27T17:50:29.502Z,1.48
2023-02-27T17:52:56.642Z,1.55
2023-02-27T17:55:28.217Z,2.05
2023-02-27T17:58:01.670Z,2.13
2023-02-27T18:00:28.659Z,2.05
2023-02-27T18:02:59.296Z,2.33
2023-02-27T18:05:27.873Z,2.30
2023-02-27T18:07:57.468Z,2.55
2023-02-27T18:10:30.958Z,1.83
2023-02-27T18:12:58.869Z,2.53
2023-02-27T18:15:26.365Z,2.05
2023-02-27T18:17:56.115Z,2.10
2023-02-27T18:20:23.443Z,2.45
2023-02-27T18:22:51.029Z,2.55
2023-02-27T18:25:20.472Z,3.92
2023-02-27T18:27:49.015Z,2.35
2023-02-27T18:30:19.746Z,2.88
2023-02-27T18:32:47.233Z,2.58
2023-02-27T18:35:16.205Z,2.90
2023-02-27T18:37:43.689Z,3.27
2023-02-27T18:40:16.972Z,2.40
2023-02-27T18:42:58.537Z,3.40
2023-02-27T18:45:26.358Z,2.75
2023-02-27T18:47:58.423Z,2.47
2023-02-27T18:50:33.200Z,2.92
2023-02-27T18:53:02.205Z,4.72
2023-02-27T18:55:30.920Z,2.33
2023-02-27T18:57:59.816Z,3.75
2023-02-27T19:00:27.703Z,2.67
2023-02-27T19:02:58.322Z,2.75
2023-02-27T19:05:30.000Z,2.58
2023-02-27T19:07:59.007Z,2.50
2023-02-27T19:10:27.575Z,2.50
2023-02-27T19:12:55.783Z,4.15
2023-02-27T19:15:23.281Z,3.78
2023-02-27T19:17:53.943Z,3.72
2023-02-27T19:20:25.404Z,3.22
2023-02-27T19:22:53.851Z,2.58
2023-02-27T19:25:22.280Z,4.22
2023-02-27T19:27:56.251Z,2.70
2023-02-27T19:30:28.128Z,4.15
2023-02-27T19:32:55.591Z,2.92
2023-02-27T19:35:27.847Z,3.28
2023-02-27T19:38:01.166Z,3.75
2023-02-27T19:40:32.878Z,2.85
2023-02-27T19:43:03.392Z,4.35
2023-02-27T19:45:31.005Z,2.90
2023-02-27T19:47:58.767Z,2.83
2023-02-27T19:50:25.969Z,2.88
2023-02-27T19:52:53.420Z,2.95
2023-02-27T19:55:21.930Z,2.97
2023-02-27T19:57:49.710Z,3.05
2023-02-27T20:00:18.272Z,3.22
2023-02-27T20:02:48.143Z,2.90
2023-02-27T20:07:48.688Z,3.08
2023-02-27T20:10:18.352Z,3.10
2023-02-27T20:12:45.915Z,4.15
2023-02-27T20:15:13.208Z,2.97
2023-02-27T20:17:42.171Z,3.30
2023-02-27T20:20:12.050Z,3.80
2023-02-27T20:25:14.215Z,3.42
2023-02-27T20:27:41.645Z,4.20
2023-02-27T20:30:11.038Z,4.53
2023-02-27T20:32:40.818Z,3.95
2023-02-27T20:35:13.049Z,3.70
2023-02-27T20:37:40.937Z,6.18
2023-02-27T20:40:14.982Z,4.75
2023-02-27T20:42:43.113Z,5.00
2023-02-27T20:45:12.058Z,4.72
2023-02-27T20:47:45.722Z,4.87
2023-02-27T20:50:17.749Z,3.80
2023-02-27T20:52:46.599Z,4.43
2023-02-27T20:55:14.328Z,3.20
2023-02-27T20:57:42.857Z,4.03
2023-02-27T21:00:15.907Z,3.72
2023-02-27T21:02:44.929Z,3.97
2023-02-27T21:05:13.916Z,4.20
2023-02-27T21:07:49.185Z,3.47
2023-02-27T21:10:22.458Z,3.70
2023-02-27T21:12:59.840Z,3.72
2023-02-27T21:15:28.141Z,3.60
2023-02-27T21:18:01.150Z,3.90
2023-02-27T21:20:35.442Z,4.25
2023-02-27T21:23:02.451Z,4.05
2023-02-27T21:25:31.240Z,3.38
2023-02-27T21:28:02.641Z,4.32
2023-02-27T21:30:30.779Z,4.20
2023-02-27T21:32:58.475Z,4.43
2023-02-27T21:35:31.365Z,4.53
2023-02-27T21:37:58.967Z,3.80
2023-02-27T21:40:26.378Z,4.10
2023-02-27T21:42:53.835Z,5.10
2023-02-27T21:45:22.619Z,13.10
2023-02-27T21:47:52.416Z,9.82
2023-02-27T21:50:23.463Z,6.32
2023-02-27T21:52:50.700Z,4.85
2023-02-27T21:55:23.835Z,4.25
2023-02-27T21:57:51.323Z,4.30
2023-02-27T22:00:22.491Z,4.10
2023-02-27T22:02:49.423Z,3.75
2023-02-27T22:05:19.590Z,4.75
2023-02-27T22:07:47.739Z,5.18
2023-02-27T22:10:14.792Z,4.20
2023-02-27T22:12:42.629Z,4.20
2023-02-27T22:15:10.175Z,4.68
2023-02-27T22:17:37.056Z,4.30
2023-02-27T22:20:17.418Z,4.85
2023-02-27T22:22:44.268Z,4.32
2023-02-27T22:25:12.305Z,5.22
2023-02-27T22:27:40.458Z,4.47
2023-02-27T22:30:10.333Z,5.25
2023-02-27T22:35:09.509Z,4.63
2023-02-27T22:37:36.381Z,4.68
2023-02-27T22:40:06.849Z,4.93
2023-02-27T22:42:37.876Z,4.57
2023-02-27T22:45:06.160Z,5.05
2023-02-27T22:47:35.250Z,5.10
2023-02-27T22:50:04.195Z,5.60
2023-02-27T22:52:37.562Z,5.57
2023-02-27T22:55:07.852Z,5.97
2023-02-27T22:57:35.711Z,6.03
2023-02-27T23:00:04.416Z,4.90
2023-02-27T23:02:33.408Z,4.70
2023-02-27T23:05:00.402Z,5.60
2023-02-27T23:07:28.491Z,5.43
2023-02-27T23:09:57.535Z,5.00
2023-02-27T23:12:28.722Z,5.78
2023-02-27T23:14:57.289Z,4.80
2023-02-27T23:17:24.464Z,4.90
2023-02-27T23:19:51.419Z,5.68
2023-02-27T23:22:19.324Z,4.93
2023-02-27T23:24:48.445Z,5.13
2023-02-27T23:27:25.796Z,5.47
2023-02-27T23:29:53.161Z,4.65
2023-02-27T23:32:20.020Z,4.20
2023-02-27T23:34:49.828Z,5.97
2023-02-27T23:39:47.176Z,5.15
2023-02-27T23:42:15.696Z,4.97
2023-02-27T23:44:42.815Z,4.55
2023-02-27T23:47:09.870Z,5.03
2023-02-27T23:49:39.818Z,5.07
2023-02-27T23:52:08.873Z,5.47
2023-02-27T23:54:43.207Z,4.05
2023-02-27T23:57:13.178Z,6.13
2023-02-27T23:59:41.075Z,4.80
